createdAt,value
2023-04-14T00:02:05.977Z,98438.75
2023-04-14T00:04:34.227Z,98424.88
2023-04-14T00:07:01.849Z,98413.28
2023-04-14T00:09:30.059Z,98405.78
2023-04-14T00:11:57.953Z,98404.69
2023-04-14T00:14:25.372Z,98407.50
2023-04-14T00:16:52.803Z,98413.72
2023-04-14T00:19:20.567Z,98418.34
2023-04-14T00:21:47.947Z,98417.31
2023-04-14T00:24:15.361Z,98417.56
2023-04-14T00:26:43.045Z,98414.63
2023-04-14T00:29:10.468Z,98418.06
2023-04-14T00:31:38.014Z,98417.72
2023-04-14T00:34:05.985Z,98416.50
2023-04-14T00:36:33.424Z,98425.47
2023-04-14T00:39:01.438Z,98417.38
2023-04-14T00:41:33.794Z,98414.94
2023-04-14T00:44:02.794Z,98405.69
2023-04-14T00:46:30.688Z,98413.09
2023-04-14T00:48:58.398Z,98411.38
2023-04-14T00:51:27.243Z,98406.28
2023-04-14T00:53:55.540Z,98403.25
2023-04-14T00:56:26.262Z,98398.66
2023-04-14T00:58:53.681Z,98393.41
2023-04-14T01:01:21.913Z,98397.62
2023-04-14T01:03:49.619Z,98388.03
2023-04-14T01:06:17.175Z,98384.00
2023-04-14T01:08:44.919Z,98383.94
2023-04-14T01:11:30.969Z,98372.59
2023-04-14T01:14:10.039Z,98354.44
2023-04-14T01:16:40.474Z,98342.75
2023-04-14T01:19:30.114Z,98330.75
2023-04-14T01:22:01.916Z,98317.94
2023-04-14T01:24:29.449Z,98309.75
2023-04-14T01:27:28.096Z,98304.84
2023-04-14T01:30:20.274Z,98295.91
2023-04-14T01:32:49.854Z,98300.03
2023-04-14T01:35:25.945Z,98303.91
2023-04-14T01:37:55.992Z,98299.81
2023-04-14T01:40:26.345Z,98299.97
2023-04-14T01:43:02.641Z,98313.44
2023-04-14T01:45:36.326Z,98300.03
2023-04-14T01:48:05.999Z,98296.09
2023-04-14T01:50:35.166Z,98304.50
2023-04-14T01:53:05.295Z,98303.50
2023-04-14T01:55:33.703Z,98296.25
2023-04-14T01:58:02.757Z,98288.25
2023-04-14T02:00:30.637Z,98286.34
2023-04-14T02:03:01.960Z,98275.88
2023-04-14T02:05:32.250Z,98263.87
2023-04-14T02:08:00.784Z,98266.50
2023-04-14T02:10:29.180Z,98264.06
2023-04-14T02:12:57.919Z,98271.44
2023-04-14T02:15:26.215Z,98277.19
2023-04-14T02:17:54.822Z,98274.75
2023-04-14T02:20:22.802Z,98285.81
2023-04-14T02:22:50.214Z,98286.47
2023-04-14T02:25:17.636Z,98288.69
2023-04-14T02:28:01.125Z,98296.66
2023-04-14T02:30:49.246Z,98298.84
2023-04-14T02:33:20.400Z,98291.06
2023-04-14T02:35:51.017Z,98294.28
2023-04-14T02:38:23.178Z,98292.09
2023-04-14T02:40:50.779Z,98287.63
2023-04-14T02:43:20.785Z,98293.13
2023-04-14T02:45:50.783Z,98296.34
2023-04-14T02:48:18.762Z,98289.44
2023-04-14T02:50:48.233Z,98283.16
2023-04-14T02:53:18.665Z,98285.09
2023-04-14T02:55:48.241Z,98279.94
2023-04-14T02:58:16.852Z,98280.09
2023-04-14T03:00:46.727Z,98276.97
2023-04-14T03:03:15.429Z,98269.81
2023-04-14T03:05:44.034Z,98268.78
2023-04-14T03:08:12.605Z,98259.97
2023-04-14T03:10:41.488Z,98270.34
2023-04-14T03:13:09.773Z,98262.25
2023-04-14T03:15:37.968Z,98247.37
2023-04-14T03:18:06.640Z,98251.34
2023-04-14T03:20:36.020Z,98239.47
2023-04-14T03:23:06.455Z,98242.00
2023-04-14T03:25:38.010Z,98230.53
2023-04-14T03:28:13.676Z,98216.87
2023-04-14T03:30:44.503Z,98217.84
2023-04-14T03:33:14.542Z,98224.34
2023-04-14T03:35:44.624Z,98248.16
2023-04-14T03:38:15.370Z,98262.69
2023-04-14T03:40:47.610Z,98262.41
2023-04-14T03:43:19.963Z,98257.44
2023-04-14T03:45:49.313Z,98281.53
2023-04-14T03:48:19.286Z,98318.06
2023-04-14T03:50:49.565Z,98326.28
2023-04-14T03:53:18.845Z,98315.31
2023-04-14T03:55:48.109Z,98322.31
2023-04-14T03:58:16.701Z,98312.69
2023-04-14T04:00:46.031Z,98310.59
2023-04-14T04:03:14.760Z,98305.38
2023-04-14T04:05:43.389Z,98298.78
2023-04-14T04:08:11.487Z,98296.28
2023-04-14T04:10:39.685Z,98295.50
2023-04-14T04:13:13.133Z,98281.72
2023-04-14T04:15:41.845Z,98279.88
2023-04-14T04:18:11.476Z,98284.09
2023-04-14T04:20:40.865Z,98282.66
2023-04-14T04:23:09.541Z,98275.09
2023-04-14T04:25:37.461Z,98263.34
2023-04-14T04:28:06.025Z,98259.22
2023-04-14T04:30:34.402Z,98245.34
2023-04-14T04:33:03.771Z,98238.56
2023-04-14T04:35:31.963Z,98241.88
2023-04-14T04:38:01.843Z,98232.97
2023-04-14T04:40:35.854Z,98227.25
2023-04-14T04:43:03.637Z,98237.47
2023-04-14T04:45:56.803Z,98244.78
2023-04-14T04:48:25.250Z,98259.59
2023-04-14T04:50:52.627Z,98266.81
2023-04-14T04:53:20.062Z,98259.16
2023-04-14T04:55:47.713Z,98254.66
2023-04-14T04:58:15.100Z,98256.06
2023-04-14T05:00:43.440Z,98256.69
2023-04-14T05:03:11.154Z,98260.44
2023-04-14T05:05:38.581Z,98279.97
2023-04-14T05:08:06.010Z,98285.13
2023-04-14T05:10:37.003Z,98290.84
2023-04-14T05:13:04.568Z,98293.56
2023-04-14T05:15:32.178Z,98283.16
2023-04-14T05:17:59.992Z,98277.81
2023-04-14T05:20:27.411Z,98281.47
2023-04-14T05:22:54.776Z,98282.91
2023-04-14T05:25:22.673Z,98289.78
2023-04-14T05:27:50.078Z,98288.81
2023-04-14T05:30:17.518Z,98286.37
2023-04-14T05:32:45.223Z,98285.37
2023-04-14T05:35:12.721Z,98281.31
2023-04-14T05:37:40.097Z,98281.69
2023-04-14T05:40:08.332Z,98289.72
2023-04-14T05:42:35.758Z,98288.94
2023-04-14T05:45:04.086Z,98293.78
2023-04-14T05:47:31.993Z,98300.34
2023-04-14T05:49:59.960Z,98299.28
2023-04-14T05:52:27.384Z,98305.72
2023-04-14T05:54:55.258Z,98307.00
2023-04-14T05:57:22.719Z,98301.66
2023-04-14T05:59:50.324Z,98296.63
2023-04-14T06:02:18.019Z,98295.91
2023-04-14T06:04:46.054Z,98287.19
2023-04-14T06:07:13.517Z,98287.00
2023-04-14T06:09:42.664Z,98287.13
2023-04-14T06:12:10.412Z,98292.88
2023-04-14T06:14:37.815Z,98277.28
2023-04-14T06:17:05.189Z,98287.25
2023-04-14T06:19:32.813Z,98291.59
2023-04-14T06:22:00.233Z,98282.44
2023-04-14T06:24:27.591Z,98280.59
2023-04-14T06:26:55.291Z,98278.16
2023-04-14T06:29:22.653Z,98283.44
2023-04-14T06:31:51.866Z,98272.69
2023-04-14T06:34:19.610Z,98259.06
2023-04-14T06:36:47.000Z,98259.53
2023-04-14T06:39:14.417Z,98260.06
2023-04-14T06:41:42.384Z,98260.38
2023-04-14T06:44:13.203Z,98260.19
2023-04-14T06:46:40.769Z,98242.56
2023-04-14T06:49:08.505Z,98250.22
2023-04-14T06:51:35.877Z,98255.41
2023-04-14T06:54:03.698Z,98257.03
2023-04-14T06:56:31.704Z,98253.69
2023-04-14T06:58:59.110Z,98258.94
2023-04-14T07:01:26.576Z,98264.75
2023-04-14T07:03:54.329Z,98269.28
2023-04-14T07:06:25.077Z,98260.50
2023-04-14T07:08:52.562Z,98263.66
2023-04-14T07:11:20.497Z,98263.72
2023-04-14T07:13:47.944Z,98261.03
2023-04-14T07:16:15.342Z,98261.69
2023-04-14T07:18:43.101Z,98262.38
2023-04-14T07:21:10.486Z,98266.13
2023-04-14T07:23:37.875Z,98257.56
2023-04-14T07:26:06.030Z,98261.69
2023-04-14T07:28:33.465Z,98260.06
2023-04-14T07:31:08.830Z,98256.72
2023-04-14T07:33:37.076Z,98246.03
2023-04-14T07:36:09.312Z,98243.69
2023-04-14T07:38:37.178Z,98241.97
2023-04-14T07:41:06.377Z,98232.72
2023-04-14T07:43:37.292Z,98232.75
2023-04-14T07:46:06.677Z,98244.53
2023-04-14T07:48:35.617Z,98246.59
2023-04-14T07:51:04.390Z,98251.34
2023-04-14T07:53:32.770Z,98243.94
2023-04-14T07:56:00.232Z,98241.13
2023-04-14T07:58:29.303Z,98248.56
2023-04-14T08:00:57.587Z,98256.37
2023-04-14T08:03:26.044Z,98254.66
2023-04-14T08:05:53.673Z,98247.56
2023-04-14T08:08:21.115Z,98246.78
2023-04-14T08:10:48.913Z,98241.41
2023-04-14T08:13:16.457Z,98239.91
2023-04-14T08:15:43.969Z,98233.63
2023-04-14T08:18:11.700Z,98227.06
2023-04-14T08:20:39.155Z,98229.06
2023-04-14T08:23:06.820Z,98236.44
2023-04-14T08:25:34.546Z,98223.03
2023-04-14T08:28:01.918Z,98217.59
2023-04-14T08:30:29.709Z,98226.25
2023-04-14T08:32:59.009Z,98224.13
2023-04-14T08:35:35.329Z,98230.94
2023-04-14T08:38:08.228Z,98226.97
2023-04-14T08:40:38.396Z,98236.12
2023-04-14T08:43:06.055Z,98237.31
2023-04-14T08:45:34.202Z,98245.63
2023-04-14T08:48:05.718Z,98252.66
2023-04-14T08:50:37.677Z,98253.63
2023-04-14T08:53:09.470Z,98258.16
2023-04-14T08:55:40.681Z,98258.56
2023-04-14T08:58:10.765Z,98249.50
2023-04-14T09:00:40.032Z,98257.47
2023-04-14T09:03:11.571Z,98252.53
2023-04-14T09:05:40.666Z,98260.56
2023-04-14T09:08:08.411Z,98261.34
2023-04-14T09:10:36.230Z,98258.84
2023-04-14T09:13:04.567Z,98262.59
2023-04-14T09:15:32.378Z,98268.00
2023-04-14T09:17:59.929Z,98274.16
2023-04-14T09:20:37.999Z,98266.94
2023-04-14T09:23:12.245Z,98275.56
2023-04-14T09:25:40.880Z,98282.66
2023-04-14T09:28:08.819Z,98284.06
2023-04-14T09:30:36.393Z,98286.16
2023-04-14T09:33:07.808Z,98285.19
2023-04-14T09:35:49.345Z,98296.84
2023-04-14T09:38:32.501Z,98291.66
2023-04-14T09:41:01.382Z,98288.56
2023-04-14T09:43:29.335Z,98291.03
2023-04-14T09:45:58.142Z,98284.94
2023-04-14T09:48:26.022Z,98286.16
2023-04-14T09:50:59.945Z,98282.03
2023-04-14T09:53:29.652Z,98277.06
2023-04-14T09:55:59.672Z,98277.63
2023-04-14T09:58:37.845Z,98279.13
2023-04-14T10:01:14.418Z,98276.72
2023-04-14T10:03:49.420Z,98278.50
2023-04-14T10:06:23.759Z,98279.41
2023-04-14T10:08:53.212Z,98285.37
2023-04-14T10:11:25.937Z,98288.00
2023-04-14T10:13:55.704Z,98296.00
2023-04-14T10:16:24.185Z,98292.66
2023-04-14T10:18:52.929Z,98297.72
2023-04-14T10:21:22.980Z,98295.78
2023-04-14T10:23:51.485Z,98290.19
2023-04-14T10:26:19.480Z,98282.44
2023-04-14T10:28:49.328Z,98290.03
2023-04-14T10:31:33.264Z,98282.75
2023-04-14T10:34:12.003Z,98288.91
2023-04-14T10:36:39.933Z,98291.38
2023-04-14T10:39:08.058Z,98291.94
2023-04-14T10:41:49.873Z,98285.63
2023-04-14T10:44:28.796Z,98290.34
2023-04-14T10:46:57.359Z,98287.88
2023-04-14T10:49:46.116Z,98293.72
2023-04-14T10:52:16.788Z,98297.72
2023-04-14T10:55:07.877Z,98292.47
2023-04-14T10:57:43.399Z,98292.44
2023-04-14T11:00:37.776Z,98286.87
2023-04-14T11:03:10.851Z,98291.94
2023-04-14T11:05:56.954Z,98285.56
2023-04-14T11:08:33.937Z,98289.41
2023-04-14T11:11:02.669Z,98277.50
2023-04-14T11:13:31.261Z,98282.25
2023-04-14T11:16:05.618Z,98278.69
2023-04-14T11:18:37.476Z,98274.16
2023-04-14T11:21:06.191Z,98283.22
2023-04-14T11:23:35.176Z,98274.38
2023-04-14T11:26:05.136Z,98266.66
2023-04-14T11:28:40.842Z,98275.25
2023-04-14T11:31:10.620Z,98264.47
2023-04-14T11:33:39.741Z,98264.06
2023-04-14T11:36:08.727Z,98266.69
2023-04-14T11:38:40.474Z,98260.22
2023-04-14T11:41:08.769Z,98264.53
2023-04-14T11:43:37.941Z,98255.44
2023-04-14T11:46:06.093Z,98265.81
2023-04-14T11:48:33.596Z,98260.91
2023-04-14T11:51:03.800Z,98272.19
2023-04-14T11:53:32.323Z,98278.25
2023-04-14T11:56:00.963Z,98273.09
2023-04-14T11:58:28.878Z,98271.44
2023-04-14T12:00:59.449Z,98266.22
2023-04-14T12:03:28.918Z,98260.81
2023-04-14T12:05:59.847Z,98260.28
2023-04-14T12:08:32.842Z,98264.25
2023-04-14T12:11:15.957Z,98255.72
2023-04-14T12:13:44.843Z,98256.88
2023-04-14T12:16:13.680Z,98249.56
2023-04-14T12:18:41.817Z,98259.84
2023-04-14T12:21:11.920Z,98260.03
2023-04-14T12:23:41.256Z,98267.34
2023-04-14T12:26:12.183Z,98266.75
2023-04-14T12:28:41.924Z,98266.06
2023-04-14T12:31:10.199Z,98277.19
2023-04-14T12:33:37.842Z,98278.87
2023-04-14T12:36:11.996Z,98281.56
2023-04-14T12:38:39.839Z,98285.47
2023-04-14T12:41:07.358Z,98293.09
2023-04-14T12:43:37.189Z,98291.66
2023-04-14T12:46:05.721Z,98299.06
2023-04-14T12:48:43.745Z,98294.09
2023-04-14T12:51:13.185Z,98301.56
2023-04-14T12:53:41.315Z,98302.47
2023-04-14T12:56:10.340Z,98299.16
2023-04-14T12:58:39.791Z,98298.16
2023-04-14T13:01:09.724Z,98302.13
2023-04-14T13:03:50.398Z,98298.72
2023-04-14T13:06:19.848Z,98304.41
2023-04-14T13:08:48.734Z,98309.75
2023-04-14T13:11:17.580Z,98320.66
2023-04-14T13:13:45.871Z,98325.75
2023-04-14T13:16:16.758Z,98330.88
2023-04-14T13:18:53.720Z,98337.81
2023-04-14T13:21:21.254Z,98328.50
2023-04-14T13:23:48.665Z,98324.03
2023-04-14T13:26:16.300Z,98317.53
2023-04-14T13:28:43.741Z,98314.38
2023-04-14T13:31:13.057Z,98321.94
2023-04-14T13:33:41.115Z,98328.31
2023-04-14T13:36:08.651Z,98331.72
2023-04-14T13:38:36.434Z,98337.47
2023-04-14T13:41:04.087Z,98341.75
2023-04-14T13:43:33.021Z,98340.78
2023-04-14T13:46:00.905Z,98338.72
2023-04-14T13:48:31.306Z,98337.63
2023-04-14T13:50:59.496Z,98332.87
2023-04-14T13:53:27.217Z,98329.03
2023-04-14T13:55:54.882Z,98326.88
2023-04-14T13:58:22.941Z,98337.06
2023-04-14T14:00:50.318Z,98338.25
2023-04-14T14:03:18.172Z,98343.47
2023-04-14T14:05:45.831Z,98347.59
2023-04-14T14:08:16.237Z,98352.41
2023-04-14T14:10:43.997Z,98343.41
2023-04-14T14:13:11.752Z,98332.87
2023-04-14T14:15:39.264Z,98351.81
2023-04-14T14:18:07.050Z,98362.22
2023-04-14T14:20:34.467Z,98373.66
2023-04-14T14:23:01.908Z,98380.38
2023-04-14T14:25:29.848Z,98373.12
2023-04-14T14:27:57.273Z,98367.28
2023-04-14T14:30:24.821Z,98376.66
2023-04-14T14:32:52.564Z,98380.25
2023-04-14T14:35:19.957Z,98378.69
2023-04-14T14:37:48.340Z,98382.66
2023-04-14T14:40:16.096Z,98381.06
2023-04-14T14:42:44.421Z,98405.25
2023-04-14T14:45:11.894Z,98401.19
2023-04-14T14:47:39.958Z,98402.72
2023-04-14T14:50:08.786Z,98405.63
2023-04-14T14:52:36.514Z,98404.53
2023-04-14T14:55:04.654Z,98406.00
2023-04-14T14:57:32.250Z,98402.19
2023-04-14T14:59:59.760Z,98402.34
2023-04-14T15:02:27.566Z,98414.66
2023-04-14T15:04:55.067Z,98413.59
2023-04-14T15:07:22.450Z,98408.31
2023-04-14T15:09:50.720Z,98427.91
2023-04-14T15:12:18.249Z,98421.22
2023-04-14T15:14:45.899Z,98425.97
2023-04-14T15:17:13.628Z,98427.97
2023-04-14T15:19:42.093Z,98430.97
2023-04-14T15:22:10.706Z,98433.72
2023-04-14T15:24:38.374Z,98445.34
2023-04-14T15:27:06.116Z,98446.44
2023-04-14T15:29:33.483Z,98443.28
2023-04-14T15:32:01.344Z,98445.66
2023-04-14T15:34:28.897Z,98451.13
2023-04-14T15:36:56.435Z,98447.88
2023-04-14T15:39:24.171Z,98459.16
2023-04-14T15:41:52.019Z,98449.75
2023-04-14T15:44:19.474Z,98452.47
2023-04-14T15:46:47.140Z,98462.41
2023-04-14T15:49:14.543Z,98468.97
2023-04-14T15:51:42.021Z,98469.72
2023-04-14T15:54:09.694Z,98468.13
2023-04-14T15:56:37.122Z,98480.19
2023-04-14T15:59:04.518Z,98481.00
2023-04-14T16:01:32.362Z,98480.25
2023-04-14T16:04:00.373Z,98481.25
2023-04-14T16:06:28.571Z,98478.00
2023-04-14T16:08:56.454Z,98483.75
2023-04-14T16:11:24.691Z,98487.34
2023-04-14T16:13:52.591Z,98487.84
2023-04-14T16:16:20.093Z,98504.38
2023-04-14T16:18:48.655Z,98502.03
2023-04-14T16:21:16.371Z,98498.69
2023-04-14T16:23:43.878Z,98505.00
2023-04-14T16:26:28.294Z,98504.38
2023-04-14T16:29:09.244Z,98504.09
2023-04-14T16:31:37.161Z,98509.47
2023-04-14T16:34:04.897Z,98510.56
2023-04-14T16:36:33.339Z,98521.81
2023-04-14T16:39:01.782Z,98520.75
2023-04-14T16:41:29.811Z,98518.78
2023-04-14T16:43:57.261Z,98517.97
2023-04-14T16:46:25.763Z,98528.41
2023-04-14T16:48:54.425Z,98538.69
2023-04-14T16:51:22.724Z,98538.81
2023-04-14T16:53:50.535Z,98543.03
2023-04-14T16:56:17.999Z,98545.78
2023-04-14T16:58:51.475Z,98550.16
2023-04-14T17:01:19.219Z,98550.22
2023-04-14T17:03:46.825Z,98558.47
2023-04-14T17:06:17.210Z,98570.25
2023-04-14T17:08:45.734Z,98568.34
2023-04-14T17:11:14.984Z,98574.34
2023-04-14T17:13:42.633Z,98577.63
2023-04-14T17:16:11.167Z,98565.91
2023-04-14T17:18:38.598Z,98571.03
2023-04-14T17:21:06.275Z,98573.66
2023-04-14T17:23:37.723Z,98583.87
2023-04-14T17:26:05.628Z,98584.00
2023-04-14T17:28:34.799Z,98587.00
2023-04-14T17:31:03.981Z,98587.25
2023-04-14T17:33:31.873Z,98590.09
2023-04-14T17:35:59.455Z,98597.19
2023-04-14T17:38:27.298Z,98604.91
2023-04-14T17:40:55.001Z,98611.84
2023-04-14T17:43:22.631Z,98626.59
2023-04-14T17:45:51.530Z,98628.37
2023-04-14T17:48:19.417Z,98626.66
2023-04-14T17:50:46.978Z,98629.34
2023-04-14T17:53:16.206Z,98631.78
2023-04-14T17:55:43.727Z,98651.94
2023-04-14T17:58:11.211Z,98657.13
2023-04-14T18:00:39.341Z,98659.84
2023-04-14T18:03:07.177Z,98656.38
2023-04-14T18:08:02.965Z,98672.91
2023-04-14T18:10:30.817Z,98679.06
2023-04-14T18:12:58.183Z,98681.94
2023-04-14T18:15:25.633Z,98682.72
2023-04-14T18:17:53.340Z,98677.28
2023-04-14T18:20:24.961Z,98687.78
2023-04-14T18:23:01.903Z,98686.06
2023-04-14T18:26:26.435Z,98690.53
2023-04-14T18:28:19.550Z,98690.41
2023-04-14T18:30:53.582Z,98696.50
2023-04-14T18:33:22.323Z,98700.69
2023-04-14T18:35:55.205Z,98696.22
2023-04-14T18:38:24.179Z,98697.09
2023-04-14T18:40:52.347Z,98705.13
2023-04-14T18:43:20.012Z,98698.28
2023-04-14T18:45:48.752Z,98698.28
2023-04-14T18:48:16.688Z,98701.62
2023-04-14T18:50:45.114Z,98706.91
2023-04-14T18:53:13.257Z,98702.56
2023-04-14T18:55:45.753Z,98691.63
2023-04-14T18:58:14.020Z,98693.50
2023-04-14T19:00:43.800Z,98713.41
2023-04-14T19:03:11.367Z,98714.00
2023-04-14T19:05:39.461Z,98708.88
2023-04-14T19:08:07.494Z,98715.91
2023-04-14T19:10:36.270Z,98718.63
2023-04-14T19:13:03.948Z,98728.13
2023-04-14T19:15:31.403Z,98725.53
2023-04-14T19:17:58.890Z,98733.69
2023-04-14T19:20:26.762Z,98726.69
2023-04-14T19:22:54.171Z,98724.44
2023-04-14T19:25:22.343Z,98737.13
2023-04-14T19:27:50.140Z,98733.78
2023-04-14T19:30:18.455Z,98733.81
2023-04-14T19:32:46.621Z,98739.75
2023-04-14T19:35:14.318Z,98747.62
2023-04-14T19:37:41.697Z,98757.41
2023-04-14T19:40:10.956Z,98761.88
2023-04-14T19:42:38.811Z,98752.06
2023-04-14T19:45:07.788Z,98755.72
2023-04-14T19:47:35.383Z,98757.41
2023-04-14T19:50:04.266Z,98755.44
2023-04-14T19:52:31.693Z,98759.56
2023-04-14T19:54:59.177Z,98761.28
2023-04-14T19:57:27.460Z,98771.66
2023-04-14T19:59:55.187Z,98769.97
2023-04-14T20:02:23.165Z,98768.34
2023-04-14T20:04:56.792Z,98776.16
2023-04-14T20:07:24.155Z,98774.31
2023-04-14T20:09:51.508Z,98763.09
2023-04-14T20:12:19.252Z,98776.16
2023-04-14T20:14:47.091Z,98773.63
2023-04-14T20:17:14.935Z,98778.00
2023-04-14T20:19:42.701Z,98784.78
2023-04-14T20:22:10.129Z,98780.44
2023-04-14T20:24:38.413Z,98778.91
2023-04-14T20:27:06.100Z,98780.75
2023-04-14T20:29:33.493Z,98775.47
2023-04-14T20:32:02.201Z,98773.81
2023-04-14T20:34:29.922Z,98774.53
2023-04-14T20:36:57.354Z,98766.72
2023-04-14T20:39:25.128Z,98765.09
2023-04-14T20:41:52.776Z,98770.47
2023-04-14T20:44:21.267Z,98759.22
2023-04-14T20:46:48.742Z,98767.97
2023-04-14T20:49:16.620Z,98764.41
2023-04-14T20:51:46.628Z,98772.25
2023-04-14T20:54:14.090Z,98767.19
2023-04-14T20:56:41.900Z,98770.78
2023-04-14T20:59:10.227Z,98774.09
2023-04-14T21:01:38.648Z,98784.59
2023-04-14T21:04:07.057Z,98794.19
2023-04-14T21:06:34.612Z,98795.09
2023-04-14T21:09:02.512Z,98803.56
2023-04-14T21:11:30.442Z,98803.59
2023-04-14T21:13:57.892Z,98799.41
2023-04-14T21:16:45.915Z,98799.41
2023-04-14T21:19:13.530Z,98808.91
2023-04-14T21:21:40.940Z,98809.78
2023-04-14T21:24:08.676Z,98804.81
2023-04-14T21:26:36.245Z,98792.78
2023-04-14T21:29:04.219Z,98779.03
2023-04-14T21:31:32.542Z,98771.25
2023-04-14T21:34:00.020Z,98787.56
2023-04-14T21:36:27.495Z,98798.13
2023-04-14T21:38:55.286Z,98812.03
2023-04-14T21:41:22.820Z,98801.59
2023-04-14T21:43:50.235Z,98790.22
2023-04-14T21:46:17.989Z,98795.56
2023-04-14T21:48:45.547Z,98797.22
2023-04-14T21:51:13.453Z,98799.94
2023-04-14T21:53:41.186Z,98804.19
2023-04-14T21:56:11.080Z,98809.47
2023-04-14T21:58:39.579Z,98811.41
2023-04-14T22:01:09.817Z,98813.84
2023-04-14T22:03:41.756Z,98809.56
2023-04-14T22:06:11.302Z,98806.06
2023-04-14T22:08:40.553Z,98801.66
2023-04-14T22:11:08.022Z,98806.09
2023-04-14T22:13:35.607Z,98813.13
2023-04-14T22:16:03.669Z,98807.94
2023-04-14T22:18:31.836Z,98810.50
2023-04-14T22:20:59.589Z,98807.94
2023-04-14T22:23:27.495Z,98810.53
2023-04-14T22:25:54.877Z,98820.94
2023-04-14T22:28:22.615Z,98819.94
2023-04-14T22:30:50.675Z,98830.34
2023-04-14T22:33:18.068Z,98810.41
2023-04-14T22:35:45.470Z,98814.66
2023-04-14T22:38:13.100Z,98820.63
2023-04-14T22:40:41.371Z,98821.44
2023-04-14T22:43:09.142Z,98819.69
2023-04-14T22:45:37.691Z,98824.94
2023-04-14T22:48:06.761Z,98826.72
2023-04-14T22:50:35.299Z,98823.19
2023-04-14T22:53:03.805Z,98824.03
2023-04-14T22:55:31.422Z,98823.12
2023-04-14T22:57:59.127Z,98826.59
2023-04-14T23:00:26.779Z,98823.03
2023-04-14T23:02:55.739Z,98819.53
2023-04-14T23:05:23.382Z,98822.91
2023-04-14T23:07:51.195Z,98823.75
2023-04-14T23:10:19.139Z,98818.34
2023-04-14T23:12:46.837Z,98818.56
2023-04-14T23:15:14.638Z,98817.66
2023-04-14T23:17:42.235Z,98816.72
2023-04-14T23:20:09.881Z,98819.34
2023-04-14T23:22:37.621Z,98821.84
2023-04-14T23:25:05.351Z,98829.59
2023-04-14T23:27:32.645Z,98828.91
2023-04-14T23:30:00.600Z,98831.56
2023-04-14T23:32:28.307Z,98836.81
2023-04-14T23:34:56.388Z,98833.28
2023-04-14T23:37:24.075Z,98841.03
2023-04-14T23:39:51.492Z,98839.97
2023-04-14T23:42:19.199Z,98843.53
2023-04-14T23:44:46.930Z,98846.25
2023-04-14T23:47:14.498Z,98846.94
2023-04-14T23:49:41.956Z,98853.88
2023-04-14T23:52:09.671Z,98850.37
2023-04-14T23:54:37.399Z,98851.94
2023-04-14T23:57:04.831Z,98848.59
2023-04-14T23:59:32.719Z,98844.34
